sensor_id;sensor_type;location;lat;lon;timestamp;pressure;altitude;pressure_sealevel;temperature;humidity
9676;BME280;4876;42.656;23.292;2023-09-19T00:01:43;94743.34;;;16.34;81.03
9676;BME280;4876;42.656;23.292;2023-09-19T00:04:12;94748.41;;;16.27;81.38
9676;BME280;4876;42.656;23.292;2023-09-19T00:06:40;94750.22;;;16.23;81.77
9676;BME280;4876;42.656;23.292;2023-09-19T00:09:09;94753.53;;;16.20;81.37
9676;BME280;4876;42.656;23.292;2023-09-19T00:11:36;94743.50;;;16.01;81.31
9676;BME280;4876;42.656;23.292;2023-09-19T00:14:04;94751.56;;;16.04;81.97
9676;BME280;4876;42.656;23.292;2023-09-19T00:16:34;94748.00;;;16.12;81.87
9676;BME280;4876;42.656;23.292;2023-09-19T00:19:01;94747.94;;;16.09;81.98
9676;BME280;4876;42.656;23.292;2023-09-19T00:21:35;94738.63;;;16.15;81.49
9676;BME280;4876;42.656;23.292;2023-09-19T00:24:03;94744.72;;;16.03;81.84
9676;BME280;4876;42.656;23.292;2023-09-19T00:26:31;94733.22;;;15.99;82.30
9676;BME280;4876;42.656;23.292;2023-09-19T00:28:59;94742.28;;;15.98;82.80
9676;BME280;4876;42.656;23.292;2023-09-19T00:31:30;94742.72;;;16.00;82.00
9676;BME280;4876;42.656;23.292;2023-09-19T00:33:57;94735.44;;;15.97;81.96
9676;BME280;4876;42.656;23.292;2023-09-19T00:36:28;94727.22;;;16.02;82.02
9676;BME280;4876;42.656;23.292;2023-09-19T00:38:56;94720.81;;;16.15;81.09
9676;BME280;4876;42.656;23.292;2023-09-19T00:41:23;94718.63;;;15.93;82.23
9676;BME280;4876;42.656;23.292;2023-09-19T00:43:50;94728.34;;;16.01;82.58
9676;BME280;4876;42.656;23.292;2023-09-19T00:46:17;94725.03;;;16.04;82.31
9676;BME280;4876;42.656;23.292;2023-09-19T00:48:44;94728.88;;;16.07;82.03
9676;BME280;4876;42.656;23.292;2023-09-19T00:51:12;94722.38;;;16.04;81.49
9676;BME280;4876;42.656;23.292;2023-09-19T00:53:42;94735.63;;;16.17;81.02
9676;BME280;4876;42.656;23.292;2023-09-19T00:56:13;94738.31;;;16.04;81.25
9676;BME280;4876;42.656;23.292;2023-09-19T00:58:40;94726.16;;;15.91;82.18
9676;BME280;4876;42.656;23.292;2023-09-19T01:01:07;94726.38;;;15.86;83.24
9676;BME280;4876;42.656;23.292;2023-09-19T01:03:37;94735.22;;;15.90;83.03
9676;BME280;4876;42.656;23.292;2023-09-19T01:06:04;94729.47;;;16.00;82.54
9676;BME280;4876;42.656;23.292;2023-09-19T01:08:33;94723.38;;;16.00;82.33
9676;BME280;4876;42.656;23.292;2023-09-19T01:11:11;94734.91;;;15.92;82.84
9676;BME280;4876;42.656;23.292;2023-09-19T01:13:53;94725.50;;;15.82;83.43
9676;BME280;4876;42.656;23.292;2023-09-19T01:16:32;94706.16;;;15.69;83.64
9676;BME280;4876;42.656;23.292;2023-09-19T01:19:17;94738.41;;;15.96;82.89
9676;BME280;4876;42.656;23.292;2023-09-19T01:21:52;94730.59;;;15.75;83.14
9676;BME280;4876;42.656;23.292;2023-09-19T01:24:55;94741.88;;;15.84;83.44
9676;BME280;4876;42.656;23.292;2023-09-19T01:27:53;94745.03;;;15.77;83.40
9676;BME280;4876;42.656;23.292;2023-09-19T01:30:36;94739.22;;;15.72;83.86
9676;BME280;4876;42.656;23.292;2023-09-19T01:33:06;94731.69;;;15.86;82.96
9676;BME280;4876;42.656;23.292;2023-09-19T01:35:33;94734.78;;;15.88;82.71
9676;BME280;4876;42.656;23.292;2023-09-19T01:38:02;94733.66;;;15.77;83.23
9676;BME280;4876;42.656;23.292;2023-09-19T01:40:29;94726.47;;;15.77;83.40
9676;BME280;4876;42.656;23.292;2023-09-19T01:42:59;94731.34;;;15.75;83.79
9676;BME280;4876;42.656;23.292;2023-09-19T01:45:35;94732.13;;;15.64;84.07
9676;BME280;4876;42.656;23.292;2023-09-19T01:48:12;94731.88;;;15.56;84.82
9676;BME280;4876;42.656;23.292;2023-09-19T01:50:52;94725.69;;;15.52;85.54
9676;BME280;4876;42.656;23.292;2023-09-19T01:53:25;94714.53;;;15.34;85.54
9676;BME280;4876;42.656;23.292;2023-09-19T01:55:54;94732.28;;;15.34;85.96
9676;BME280;4876;42.656;23.292;2023-09-19T01:58:29;94727.06;;;15.13;87.03
9676;BME280;4876;42.656;23.292;2023-09-19T02:01:01;94726.63;;;15.11;87.99
9676;BME280;4876;42.656;23.292;2023-09-19T02:03:31;94734.03;;;15.05;88.68
9676;BME280;4876;42.656;23.292;2023-09-19T02:06:00;94736.44;;;14.98;89.35
9676;BME280;4876;42.656;23.292;2023-09-19T02:08:30;94743.84;;;15.05;89.02
9676;BME280;4876;42.656;23.292;2023-09-19T02:10:58;94739.75;;;15.07;89.16
9676;BME280;4876;42.656;23.292;2023-09-19T02:13:25;94741.78;;;15.23;87.81
9676;BME280;4876;42.656;23.292;2023-09-19T02:15:53;94731.41;;;15.30;86.71
9676;BME280;4876;42.656;23.292;2023-09-19T02:18:22;94735.63;;;15.43;86.15
9676;BME280;4876;42.656;23.292;2023-09-19T02:20:49;94737.84;;;15.41;86.41
9676;BME280;4876;42.656;23.292;2023-09-19T02:23:17;94740.25;;;15.46;86.20
9676;BME280;4876;42.656;23.292;2023-09-19T02:25:51;94729.13;;;15.41;86.36
9676;BME280;4876;42.656;23.292;2023-09-19T02:28:19;94727.47;;;15.36;86.63
9676;BME280;4876;42.656;23.292;2023-09-19T02:30:47;94722.50;;;15.34;87.22
9676;BME280;4876;42.656;23.292;2023-09-19T02:33:14;94715.19;;;15.31;87.50
9676;BME280;4876;42.656;23.292;2023-09-19T02:35:43;94724.25;;;15.43;86.57
9676;BME280;4876;42.656;23.292;2023-09-19T02:38:11;94720.16;;;15.45;86.22
9676;BME280;4876;42.656;23.292;2023-09-19T02:40:38;94716.19;;;15.51;85.81
9676;BME280;4876;42.656;23.292;2023-09-19T02:43:05;94708.34;;;15.55;85.43
9676;BME280;4876;42.656;23.292;2023-09-19T02:45:33;94709.56;;;15.57;85.11
9676;BME280;4876;42.656;23.292;2023-09-19T02:48:00;94709.13;;;15.55;85.25
9676;BME280;4876;42.656;23.292;2023-09-19T02:50:29;94705.38;;;15.56;85.40
9676;BME280;4876;42.656;23.292;2023-09-19T02:52:58;94694.88;;;15.60;85.02
9676;BME280;4876;42.656;23.292;2023-09-19T02:55:24;94700.31;;;15.64;84.33
9676;BME280;4876;42.656;23.292;2023-09-19T02:57:53;94700.19;;;15.60;84.82
9676;BME280;4876;42.656;23.292;2023-09-19T03:00:21;94684.16;;;15.56;84.13
9676;BME280;4876;42.656;23.292;2023-09-19T03:02:48;94695.56;;;15.69;83.82
9676;BME280;4876;42.656;23.292;2023-09-19T03:05:16;94685.28;;;15.55;84.52
9676;BME280;4876;42.656;23.292;2023-09-19T03:07:43;94691.25;;;15.65;84.02
9676;BME280;4876;42.656;23.292;2023-09-19T03:10:12;94664.50;;;15.45;84.41
9676;BME280;4876;42.656;23.292;2023-09-19T03:12:43;94680.31;;;15.42;84.92
9676;BME280;4876;42.656;23.292;2023-09-19T03:15:10;94685.25;;;15.19;86.42
9676;BME280;4876;42.656;23.292;2023-09-19T03:17:37;94685.94;;;15.16;87.92
9676;BME280;4876;42.656;23.292;2023-09-19T03:20:04;94685.81;;;15.12;88.34
9676;BME280;4876;42.656;23.292;2023-09-19T03:22:34;94684.81;;;15.17;88.24
9676;BME280;4876;42.656;23.292;2023-09-19T03:25:01;94683.81;;;15.21;87.95
9676;BME280;4876;42.656;23.292;2023-09-19T03:27:30;94682.50;;;15.27;87.18
9676;BME280;4876;42.656;23.292;2023-09-19T03:29:57;94679.75;;;15.36;86.52
9676;BME280;4876;42.656;23.292;2023-09-19T03:32:24;94688.13;;;15.38;85.36
9676;BME280;4876;42.656;23.292;2023-09-19T03:34:51;94690.13;;;15.29;86.19
9676;BME280;4876;42.656;23.292;2023-09-19T03:37:18;94696.00;;;15.34;86.42
9676;BME280;4876;42.656;23.292;2023-09-19T03:39:45;94666.50;;;15.24;85.06
9676;BME280;4876;42.656;23.292;2023-09-19T03:42:11;94695.53;;;15.32;85.69
9676;BME280;4876;42.656;23.292;2023-09-19T03:44:40;94705.78;;;15.34;85.83
9676;BME280;4876;42.656;23.292;2023-09-19T03:47:06;94707.66;;;15.33;85.68
9676;BME280;4876;42.656;23.292;2023-09-19T03:49:33;94708.19;;;15.15;86.62
9676;BME280;4876;42.656;23.292;2023-09-19T03:52:00;94704.13;;;15.17;86.31
9676;BME280;4876;42.656;23.292;2023-09-19T03:54:27;94709.97;;;15.11;86.58
9676;BME280;4876;42.656;23.292;2023-09-19T03:56:54;94719.22;;;15.04;87.42
9676;BME280;4876;42.656;23.292;2023-09-19T03:59:21;94713.91;;;14.92;88.43
9676;BME280;4876;42.656;23.292;2023-09-19T04:01:49;94706.94;;;14.88;89.11
9676;BME280;4876;42.656;23.292;2023-09-19T04:04:21;94711.66;;;14.82;89.48
9676;BME280;4876;42.656;23.292;2023-09-19T04:06:50;94710.75;;;14.78;89.93
9676;BME280;4876;42.656;23.292;2023-09-19T04:09:17;94714.06;;;14.75;90.25
9676;BME280;4876;42.656;23.292;2023-09-19T04:11:44;94725.09;;;14.77;90.81
9676;BME280;4876;42.656;23.292;2023-09-19T04:14:11;94727.75;;;14.77;90.69
9676;BME280;4876;42.656;23.292;2023-09-19T04:16:38;94723.31;;;14.69;91.93
9676;BME280;4876;42.656;23.292;2023-09-19T04:19:06;94726.63;;;14.78;92.41
9676;BME280;4876;42.656;23.292;2023-09-19T04:21:33;94729.38;;;15.02;91.50
9676;BME280;4876;42.656;23.292;2023-09-19T04:24:00;94719.06;;;15.46;90.00
9676;BME280;4876;42.656;23.292;2023-09-19T04:26:27;94723.81;;;15.89;84.97
9676;BME280;4876;42.656;23.292;2023-09-19T04:28:54;94719.22;;;16.27;83.65
9676;BME280;4876;42.656;23.292;2023-09-19T04:31:21;94713.88;;;16.79;82.00
9676;BME280;4876;42.656;23.292;2023-09-19T04:33:48;94722.00;;;17.30;78.69
9676;BME280;4876;42.656;23.292;2023-09-19T04:36:16;94725.38;;;17.74;76.80
9676;BME280;4876;42.656;23.292;2023-09-19T04:38:43;94720.72;;;18.22;73.92
9676;BME280;4876;42.656;23.292;2023-09-19T04:41:10;94712.34;;;18.40;71.26
9676;BME280;4876;42.656;23.292;2023-09-19T04:43:37;94713.81;;;18.37;70.79
9676;BME280;4876;42.656;23.292;2023-09-19T04:46:04;94712.34;;;18.20;71.35
9676;BME280;4876;42.656;23.292;2023-09-19T04:48:32;94720.09;;;17.94;72.55
9676;BME280;4876;42.656;23.292;2023-09-19T04:51:00;94715.19;;;17.77;73.01
9676;BME280;4876;42.656;23.292;2023-09-19T04:53:28;94701.94;;;17.64;74.04
9676;BME280;4876;42.656;23.292;2023-09-19T04:55:55;94705.44;;;17.68;75.91
9676;BME280;4876;42.656;23.292;2023-09-19T04:58:22;94710.41;;;17.70;75.62
9676;BME280;4876;42.656;23.292;2023-09-19T05:00:49;94707.63;;;17.47;77.70
9676;BME280;4876;42.656;23.292;2023-09-19T05:03:16;94701.94;;;17.48;77.57
9676;BME280;4876;42.656;23.292;2023-09-19T05:05:45;94695.69;;;17.09;79.24
9676;BME280;4876;42.656;23.292;2023-09-19T05:08:12;94698.94;;;17.03;80.48
9676;BME280;4876;42.656;23.292;2023-09-19T05:10:41;94701.13;;;16.85;80.71
9676;BME280;4876;42.656;23.292;2023-09-19T05:13:08;94708.81;;;17.34;79.70
9676;BME280;4876;42.656;23.292;2023-09-19T05:15:35;94704.78;;;17.56;77.16
9676;BME280;4876;42.656;23.292;2023-09-19T05:18:03;94707.88;;;17.89;75.76
9676;BME280;4876;42.656;23.292;2023-09-19T05:20:31;94703.06;;;18.14;73.41
9676;BME280;4876;42.656;23.292;2023-09-19T05:23:00;94704.28;;;18.01;73.10
9676;BME280;4876;42.656;23.292;2023-09-19T05:25:28;94704.84;;;17.91;73.75
9676;BME280;4876;42.656;23.292;2023-09-19T05:27:58;94693.59;;;17.82;75.47
9676;BME280;4876;42.656;23.292;2023-09-19T05:30:26;94696.19;;;18.13;73.07
9676;BME280;4876;42.656;23.292;2023-09-19T05:32:55;94692.72;;;18.28;74.15
9676;BME280;4876;42.656;23.292;2023-09-19T05:35:22;94696.41;;;18.24;72.77
9676;BME280;4876;42.656;23.292;2023-09-19T05:37:50;94694.75;;;18.16;73.86
9676;BME280;4876;42.656;23.292;2023-09-19T05:40:18;94692.69;;;18.09;73.81
9676;BME280;4876;42.656;23.292;2023-09-19T05:42:45;94695.53;;;18.36;72.42
9676;BME280;4876;42.656;23.292;2023-09-19T05:45:14;94668.75;;;18.09;71.72
9676;BME280;4876;42.656;23.292;2023-09-19T05:47:44;94683.22;;;18.12;74.00
9676;BME280;4876;42.656;23.292;2023-09-19T05:50:12;94693.13;;;18.50;71.69
9676;BME280;4876;42.656;23.292;2023-09-19T05:52:40;94688.72;;;18.38;72.91
9676;BME280;4876;42.656;23.292;2023-09-19T05:55:09;94689.84;;;18.37;72.15
9676;BME280;4876;42.656;23.292;2023-09-19T05:57:37;94691.88;;;18.24;72.23
9676;BME280;4876;42.656;23.292;2023-09-19T06:00:05;94690.59;;;17.67;74.46
9676;BME280;4876;42.656;23.292;2023-09-19T06:02:37;94684.69;;;17.74;74.71
9676;BME280;4876;42.656;23.292;2023-09-19T06:05:06;94688.84;;;17.71;74.00
9676;BME280;4876;42.656;23.292;2023-09-19T06:07:35;94680.06;;;17.71;73.93
9676;BME280;4876;42.656;23.292;2023-09-19T06:10:03;94683.81;;;17.70;74.30
9676;BME280;4876;42.656;23.292;2023-09-19T06:12:32;94683.41;;;17.68;75.89
9676;BME280;4876;42.656;23.292;2023-09-19T06:15:03;94688.19;;;17.94;74.17
9676;BME280;4876;42.656;23.292;2023-09-19T06:17:34;94678.88;;;18.03;73.52
9676;BME280;4876;42.656;23.292;2023-09-19T06:20:05;94670.09;;;17.68;75.32
9676;BME280;4876;42.656;23.292;2023-09-19T06:22:38;94673.06;;;17.98;74.20
9676;BME280;4876;42.656;23.292;2023-09-19T06:25:07;94664.25;;;18.13;73.10
9676;BME280;4876;42.656;23.292;2023-09-19T06:27:37;94665.94;;;18.60;71.83
9676;BME280;4876;42.656;23.292;2023-09-19T06:30:05;94663.56;;;18.55;72.47
9676;BME280;4876;42.656;23.292;2023-09-19T06:32:33;94665.19;;;19.02;71.18
9676;BME280;4876;42.656;23.292;2023-09-19T06:35:00;94664.59;;;19.12;70.33
9676;BME280;4876;42.656;23.292;2023-09-19T06:37:29;94673.50;;;18.97;69.36
9676;BME280;4876;42.656;23.292;2023-09-19T06:39:56;94676.09;;;19.16;69.47
9676;BME280;4876;42.656;23.292;2023-09-19T06:42:23;94671.31;;;19.02;69.50
9676;BME280;4876;42.656;23.292;2023-09-19T06:44:50;94675.03;;;18.98;69.39
9676;BME280;4876;42.656;23.292;2023-09-19T06:47:17;94682.00;;;19.06;68.77
9676;BME280;4876;42.656;23.292;2023-09-19T06:49:43;94679.47;;;18.90;69.56
9676;BME280;4876;42.656;23.292;2023-09-19T06:52:10;94682.31;;;19.01;70.15
9676;BME280;4876;42.656;23.292;2023-09-19T06:54:39;94677.16;;;18.89;71.03
9676;BME280;4876;42.656;23.292;2023-09-19T06:57:07;94682.19;;;18.94;71.23
9676;BME280;4876;42.656;23.292;2023-09-19T06:59:35;94681.66;;;19.30;70.56
9676;BME280;4876;42.656;23.292;2023-09-19T07:02:03;94694.34;;;19.37;68.94
9676;BME280;4876;42.656;23.292;2023-09-19T07:04:31;94690.56;;;19.15;68.58
9676;BME280;4876;42.656;23.292;2023-09-19T07:06:59;94686.06;;;19.19;68.98
9676;BME280;4876;42.656;23.292;2023-09-19T07:09:25;94689.06;;;18.95;69.49
9676;BME280;4876;42.656;23.292;2023-09-19T07:11:54;94687.78;;;19.08;69.23
9676;BME280;4876;42.656;23.292;2023-09-19T07:14:21;94681.38;;;18.90;69.62
9676;BME280;4876;42.656;23.292;2023-09-19T07:16:48;94680.88;;;18.84;70.51
9676;BME280;4876;42.656;23.292;2023-09-19T07:19:16;94684.56;;;18.99;70.61
9676;BME280;4876;42.656;23.292;2023-09-19T07:21:43;94692.16;;;19.20;69.12
9676;BME280;4876;42.656;23.292;2023-09-19T07:24:10;94694.47;;;19.21;68.90
9676;BME280;4876;42.656;23.292;2023-09-19T07:26:36;94688.53;;;19.08;69.49
9676;BME280;4876;42.656;23.292;2023-09-19T07:29:06;94691.97;;;19.09;69.65
9676;BME280;4876;42.656;23.292;2023-09-19T07:31:34;94686.41;;;18.95;69.63
9676;BME280;4876;42.656;23.292;2023-09-19T07:34:01;94684.03;;;18.90;70.65
9676;BME280;4876;42.656;23.292;2023-09-19T07:36:29;94691.13;;;19.05;71.22
9676;BME280;4876;42.656;23.292;2023-09-19T07:38:56;94688.59;;;19.35;69.38
9676;BME280;4876;42.656;23.292;2023-09-19T07:41:23;94684.81;;;19.59;68.04
9676;BME280;4876;42.656;23.292;2023-09-19T07:43:51;94685.13;;;19.80;67.53
9676;BME280;4876;42.656;23.292;2023-09-19T07:46:19;94687.09;;;19.83;66.97
9676;BME280;4876;42.656;23.292;2023-09-19T07:48:46;94693.97;;;19.58;68.69
9676;BME280;4876;42.656;23.292;2023-09-19T07:51:14;94689.03;;;19.60;68.20
9676;BME280;4876;42.656;23.292;2023-09-19T07:53:41;94682.25;;;19.93;66.56
9676;BME280;4876;42.656;23.292;2023-09-19T07:56:09;94687.91;;;19.87;66.76
9676;BME280;4876;42.656;23.292;2023-09-19T07:58:39;94688.19;;;20.09;66.07
9676;BME280;4876;42.656;23.292;2023-09-19T08:01:10;94693.69;;;20.20;65.55
9676;BME280;4876;42.656;23.292;2023-09-19T08:03:39;94691.38;;;20.18;65.98
9676;BME280;4876;42.656;23.292;2023-09-19T08:06:07;94690.34;;;20.00;66.09
9676;BME280;4876;42.656;23.292;2023-09-19T08:08:34;94675.41;;;20.22;65.36
9676;BME280;4876;42.656;23.292;2023-09-19T08:11:03;94673.09;;;20.20;65.57
9676;BME280;4876;42.656;23.292;2023-09-19T08:13:36;94658.88;;;19.82;65.79
9676;BME280;4876;42.656;23.292;2023-09-19T08:16:06;94670.25;;;19.79;66.74
9676;BME280;4876;42.656;23.292;2023-09-19T08:18:33;94666.66;;;19.95;66.60
9676;BME280;4876;42.656;23.292;2023-09-19T08:21:02;94668.38;;;20.10;66.96
9676;BME280;4876;42.656;23.292;2023-09-19T08:23:28;94661.59;;;20.16;66.29
9676;BME280;4876;42.656;23.292;2023-09-19T08:25:58;94653.97;;;20.18;65.82
9676;BME280;4876;42.656;23.292;2023-09-19T08:28:28;94663.72;;;20.33;65.69
9676;BME280;4876;42.656;23.292;2023-09-19T08:30:55;94661.91;;;20.11;65.91
9676;BME280;4876;42.656;23.292;2023-09-19T08:33:23;94673.25;;;20.04;66.78
9676;BME280;4876;42.656;23.292;2023-09-19T08:35:50;94673.63;;;20.03;66.83
9676;BME280;4876;42.656;23.292;2023-09-19T08:38:18;94676.91;;;20.19;66.76
9676;BME280;4876;42.656;23.292;2023-09-19T08:40:45;94666.06;;;20.38;65.96
9676;BME280;4876;42.656;23.292;2023-09-19T08:43:12;94673.13;;;20.50;65.16
9676;BME280;4876;42.656;23.292;2023-09-19T08:45:39;94668.63;;;20.58;65.56
9676;BME280;4876;42.656;23.292;2023-09-19T08:48:19;94667.06;;;20.57;65.05
9676;BME280;4876;42.656;23.292;2023-09-19T08:50:51;94659.06;;;20.57;65.61
9676;BME280;4876;42.656;23.292;2023-09-19T08:53:29;94658.00;;;20.65;65.17
9676;BME280;4876;42.656;23.292;2023-09-19T08:55:59;94654.69;;;20.75;65.02
9676;BME280;4876;42.656;23.292;2023-09-19T08:58:31;94657.44;;;20.86;65.16
9676;BME280;4876;42.656;23.292;2023-09-19T09:01:01;94652.53;;;20.91;66.18
9676;BME280;4876;42.656;23.292;2023-09-19T09:03:32;94654.53;;;21.02;64.32
9676;BME280;4876;42.656;23.292;2023-09-19T09:06:00;94655.75;;;21.08;64.26
9676;BME280;4876;42.656;23.292;2023-09-19T09:08:30;94658.00;;;21.02;63.71
9676;BME280;4876;42.656;23.292;2023-09-19T09:10:58;94654.50;;;20.94;64.04
9676;BME280;4876;42.656;23.292;2023-09-19T09:13:25;94650.00;;;21.06;63.18
9676;BME280;4876;42.656;23.292;2023-09-19T09:15:53;94652.22;;;21.41;61.96
9676;BME280;4876;42.656;23.292;2023-09-19T09:18:20;94647.16;;;21.29;62.61
9676;BME280;4876;42.656;23.292;2023-09-19T09:20:48;94639.19;;;21.36;62.48
9676;BME280;4876;42.656;23.292;2023-09-19T09:23:14;94636.88;;;21.31;62.94
9676;BME280;4876;42.656;23.292;2023-09-19T09:25:50;94630.09;;;21.47;62.44
9676;BME280;4876;42.656;23.292;2023-09-19T09:28:21;94630.91;;;21.52;61.71
9676;BME280;4876;42.656;23.292;2023-09-19T09:30:48;94628.91;;;21.38;62.13
9676;BME280;4876;42.656;23.292;2023-09-19T09:33:16;94621.69;;;21.45;62.07
9676;BME280;4876;42.656;23.292;2023-09-19T09:35:50;94627.06;;;21.49;62.01
9676;BME280;4876;42.656;23.292;2023-09-19T09:38:19;94592.09;;;21.28;62.06
9676;BME280;4876;42.656;23.292;2023-09-19T09:40:49;94611.81;;;21.57;62.10
9676;BME280;4876;42.656;23.292;2023-09-19T09:43:26;94615.72;;;21.70;61.27
9676;BME280;4876;42.656;23.292;2023-09-19T09:46:07;94610.63;;;21.50;62.26
9676;BME280;4876;42.656;23.292;2023-09-19T09:48:59;94615.03;;;21.84;60.95
9676;BME280;4876;42.656;23.292;2023-09-19T09:52:00;94598.91;;;21.73;61.48
9676;BME280;4876;42.656;23.292;2023-09-19T09:54:31;94604.72;;;21.82;61.40
9676;BME280;4876;42.656;23.292;2023-09-19T09:57:05;94598.72;;;22.07;60.66
9676;BME280;4876;42.656;23.292;2023-09-19T09:59:52;94601.31;;;21.96;60.57
9676;BME280;4876;42.656;23.292;2023-09-19T10:02:25;94600.63;;;22.06;60.92
9676;BME280;4876;42.656;23.292;2023-09-19T10:04:55;94604.81;;;22.03;61.14
9676;BME280;4876;42.656;23.292;2023-09-19T10:07:40;94607.28;;;22.44;60.08
9676;BME280;4876;42.656;23.292;2023-09-19T10:10:13;94605.41;;;22.55;59.15
9676;BME280;4876;42.656;23.292;2023-09-19T10:12:45;94600.47;;;22.79;60.22
9676;BME280;4876;42.656;23.292;2023-09-19T10:15:15;94601.69;;;23.06;58.97
9676;BME280;4876;42.656;23.292;2023-09-19T10:17:46;94592.47;;;23.04;57.95
9676;BME280;4876;42.656;23.292;2023-09-19T10:20:14;94600.91;;;22.99;57.81
9676;BME280;4876;42.656;23.292;2023-09-19T10:22:53;94531.88;;;22.56;57.29
9676;BME280;4876;42.656;23.292;2023-09-19T10:25:27;94598.94;;;22.78;58.33
9676;BME280;4876;42.656;23.292;2023-09-19T10:27:57;94588.25;;;23.03;57.08
9676;BME280;4876;42.656;23.292;2023-09-19T10:30:31;94598.63;;;23.26;56.75
9676;BME280;4876;42.656;23.292;2023-09-19T10:33:01;94586.75;;;23.30;56.67
9676;BME280;4876;42.656;23.292;2023-09-19T10:35:29;94597.09;;;23.18;56.99
9676;BME280;4876;42.656;23.292;2023-09-19T10:37:59;94580.22;;;22.99;57.21
9676;BME280;4876;42.656;23.292;2023-09-19T10:40:27;94595.16;;;23.07;57.33
9676;BME280;4876;42.656;23.292;2023-09-19T10:43:02;94596.31;;;23.24;57.06
9676;BME280;4876;42.656;23.292;2023-09-19T10:45:31;94590.56;;;23.26;57.03
9676;BME280;4876;42.656;23.292;2023-09-19T10:47:59;94578.69;;;23.27;56.63
9676;BME280;4876;42.656;23.292;2023-09-19T10:50:30;94583.28;;;23.23;57.39
9676;BME280;4876;42.656;23.292;2023-09-19T10:53:00;94577.91;;;23.08;57.89
9676;BME280;4876;42.656;23.292;2023-09-19T10:55:34;94571.78;;;23.12;57.45
9676;BME280;4876;42.656;23.292;2023-09-19T10:58:04;94569.84;;;22.98;57.26
9676;BME280;4876;42.656;23.292;2023-09-19T11:00:53;94566.38;;;22.76;58.63
9676;BME280;4876;42.656;23.292;2023-09-19T11:03:22;94572.53;;;22.98;58.66
9676;BME280;4876;42.656;23.292;2023-09-19T11:06:06;94572.56;;;23.12;57.31
9676;BME280;4876;42.656;23.292;2023-09-19T11:08:55;94562.97;;;23.15;57.32
9676;BME280;4876;42.656;23.292;2023-09-19T11:11:46;94562.22;;;23.18;57.89
9676;BME280;4876;42.656;23.292;2023-09-19T11:14:39;94565.25;;;23.27;57.43
9676;BME280;4876;42.656;23.292;2023-09-19T11:17:40;94561.06;;;22.94;59.45
9676;BME280;4876;42.656;23.292;2023-09-19T11:20:23;94557.59;;;23.36;57.45
9676;BME280;4876;42.656;23.292;2023-09-19T11:23:24;94556.81;;;23.28;57.83
9676;BME280;4876;42.656;23.292;2023-09-19T11:25:51;94553.38;;;23.28;57.47
9676;BME280;4876;42.656;23.292;2023-09-19T11:28:34;94554.16;;;23.25;57.90
9676;BME280;4876;42.656;23.292;2023-09-19T11:34:41;94544.97;;;23.01;58.45
9676;BME280;4876;42.656;23.292;2023-09-19T11:40:36;94529.50;;;23.87;57.39
9676;BME280;4876;42.656;23.292;2023-09-19T11:43:28;94518.34;;;23.85;56.93
9676;BME280;4876;42.656;23.292;2023-09-19T11:46:06;94514.97;;;23.70;56.95
9676;BME280;4876;42.656;23.292;2023-09-19T11:48:33;94506.91;;;23.59;57.65
9676;BME280;4876;42.656;23.292;2023-09-19T11:51:20;94514.59;;;23.57;57.10
9676;BME280;4876;42.656;23.292;2023-09-19T11:53:50;94508.81;;;23.70;56.67
9676;BME280;4876;42.656;23.292;2023-09-19T11:56:18;94501.13;;;23.75;56.65
9676;BME280;4876;42.656;23.292;2023-09-19T11:58:46;94501.94;;;23.54;56.95
9676;BME280;4876;42.656;23.292;2023-09-19T12:01:15;94511.13;;;23.75;55.92
9676;BME280;4876;42.656;23.292;2023-09-19T12:03:47;94467.88;;;23.37;55.94
9676;BME280;4876;42.656;23.292;2023-09-19T12:06:21;94506.91;;;23.74;55.64
9676;BME280;4876;42.656;23.292;2023-09-19T12:08:49;94488.09;;;23.74;56.10
9676;BME280;4876;42.656;23.292;2023-09-19T12:11:19;94455.16;;;23.52;56.22
9676;BME280;4876;42.656;23.292;2023-09-19T12:13:49;94484.69;;;23.55;57.07
9676;BME280;4876;42.656;23.292;2023-09-19T12:16:17;94485.78;;;23.76;56.98
9676;BME280;4876;42.656;23.292;2023-09-19T12:18:48;94484.63;;;23.77;56.82
9676;BME280;4876;42.656;23.292;2023-09-19T12:21:24;94476.22;;;23.68;55.63
9676;BME280;4876;42.656;23.292;2023-09-19T12:24:06;94483.84;;;23.80;55.95
9676;BME280;4876;42.656;23.292;2023-09-19T12:26:40;94467.69;;;23.87;55.27
9676;BME280;4876;42.656;23.292;2023-09-19T12:29:16;94475.41;;;23.81;55.21
9676;BME280;4876;42.656;23.292;2023-09-19T12:31:51;94465.78;;;23.84;55.17
9676;BME280;4876;42.656;23.292;2023-09-19T12:34:22;94461.88;;;23.99;54.61
9676;BME280;4876;42.656;23.292;2023-09-19T12:37:08;94457.69;;;23.98;55.34
9676;BME280;4876;42.656;23.292;2023-09-19T12:39:42;94456.56;;;23.85;54.47
9676;BME280;4876;42.656;23.292;2023-09-19T12:42:10;94450.44;;;23.88;55.40
9676;BME280;4876;42.656;23.292;2023-09-19T12:44:41;94454.59;;;23.96;55.72
9676;BME280;4876;42.656;23.292;2023-09-19T12:47:13;94453.41;;;24.04;55.51
9676;BME280;4876;42.656;23.292;2023-09-19T12:50:05;94459.88;;;24.17;55.48
9676;BME280;4876;42.656;23.292;2023-09-19T12:52:38;94462.56;;;24.17;54.34
9676;BME280;4876;42.656;23.292;2023-09-19T12:55:05;94451.16;;;23.96;55.01
9676;BME280;4876;42.656;23.292;2023-09-19T12:57:33;94448.69;;;24.23;55.06
9676;BME280;4876;42.656;23.292;2023-09-19T13:00:01;94451.97;;;24.52;55.11
9676;BME280;4876;42.656;23.292;2023-09-19T13:02:28;94446.50;;;24.66;54.60
9676;BME280;4876;42.656;23.292;2023-09-19T13:04:55;94432.31;;;24.58;54.81
9676;BME280;4876;42.656;23.292;2023-09-19T13:07:42;94434.94;;;24.65;54.75
9676;BME280;4876;42.656;23.292;2023-09-19T13:10:11;94433.81;;;24.66;54.48
9676;BME280;4876;42.656;23.292;2023-09-19T13:12:41;94439.53;;;24.68;53.82
9676;BME280;4876;42.656;23.292;2023-09-19T13:15:10;94431.38;;;24.31;55.32
9676;BME280;4876;42.656;23.292;2023-09-19T13:17:46;94439.41;;;24.38;54.55
9676;BME280;4876;42.656;23.292;2023-09-19T13:20:23;94426.72;;;24.42;54.77
9676;BME280;4876;42.656;23.292;2023-09-19T13:22:55;94415.34;;;24.65;54.47
9676;BME280;4876;42.656;23.292;2023-09-19T13:25:26;94415.31;;;24.72;55.28
9676;BME280;4876;42.656;23.292;2023-09-19T13:27:56;94413.06;;;24.63;55.09
9676;BME280;4876;42.656;23.292;2023-09-19T13:30:24;94414.66;;;24.57;55.37
9676;BME280;4876;42.656;23.292;2023-09-19T13:32:51;94404.66;;;24.61;55.29
9676;BME280;4876;42.656;23.292;2023-09-19T13:35:19;94399.22;;;24.65;54.62